sensor_id;sensor_type;location;lat;lon;timestamp;P1;durP1;ratioP1;P2;durP2;ratioP2
64641;SDS011;59936;51.490;5.436;2022-09-09T00:00:49;4.63;;;2.80;;
64641;SDS011;59936;51.490;5.436;2022-09-09T00:02:17;7.22;;;3.00;;
64641;SDS011;59936;51.490;5.436;2022-09-09T00:03:25;4.60;;;2.80;;
64641;SDS011;59936;51.490;5.436;2022-09-09T00:04:28;4.72;;;2.85;;
64641;SDS011;59936;51.490;5.436;2022-09-09T00:07:32;4.03;;;2.38;;
64641;SDS011;59936;51.490;5.436;2022-09-09T00:09:21;4.77;;;2.67;;
64641;SDS011;59936;51.490;5.436;2022-09-09T00:11:36;3.95;;;2.53;;
64641;SDS011;59936;51.490;5.436;2022-09-09T00:12:47;2.83;;;2.53;;
64641;SDS011;59936;51.490;5.436;2022-09-09T00:14:14;4.40;;;2.70;;
64641;SDS011;59936;51.490;5.436;2022-09-09T00:15:33;4.78;;;2.42;;
64641;SDS011;59936;51.490;5.436;2022-09-09T00:16:39;5.03;;;2.40;;
64641;SDS011;59936;51.490;5.436;2022-09-09T00:17:57;3.45;;;2.47;;
64641;SDS011;59936;51.490;5.436;2022-09-09T00:21:43;3.42;;;2.40;;
64641;SDS011;59936;51.490;5.436;2022-09-09T00:24:32;4.60;;;2.40;;
64641;SDS011;59936;51.490;5.436;2022-09-09T00:25:43;3.15;;;2.42;;
64641;SDS011;59936;51.490;5.436;2022-09-09T00:26:51;3.58;;;2.45;;
64641;SDS011;59936;51.490;5.436;2022-09-09T00:27:57;5.43;;;2.58;;
64641;SDS011;59936;51.490;5.436;2022-09-09T00:30:37;5.65;;;2.92;;
64641;SDS011;59936;51.490;5.436;2022-09-09T00:31:35;4.03;;;2.80;;
64641;SDS011;59936;51.490;5.436;2022-09-09T00:32:34;7.72;;;2.90;;
64641;SDS011;59936;51.490;5.436;2022-09-09T00:33:32;3.85;;;2.60;;
64641;SDS011;59936;51.490;5.436;2022-09-09T00:34:31;6.43;;;3.13;;
64641;SDS011;59936;51.490;5.436;2022-09-09T00:35:31;4.82;;;3.17;;
64641;SDS011;59936;51.490;5.436;2022-09-09T00:36:34;3.78;;;2.70;;
64641;SDS011;59936;51.490;5.436;2022-09-09T00:37:35;2.85;;;2.60;;
64641;SDS011;59936;51.490;5.436;2022-09-09T00:38:33;5.18;;;3.05;;
64641;SDS011;59936;51.490;5.436;2022-09-09T00:39:40;5.47;;;2.85;;
64641;SDS011;59936;51.490;5.436;2022-09-09T00:43:21;4.93;;;2.95;;
64641;SDS011;59936;51.490;5.436;2022-09-09T00:44:34;3.53;;;2.90;;
64641;SDS011;59936;51.490;5.436;2022-09-09T00:52:06;5.72;;;3.10;;
64641;SDS011;59936;51.490;5.436;2022-09-09T00:58:10;4.95;;;2.70;;
64641;SDS011;59936;51.490;5.436;2022-09-09T01:00:44;4.65;;;2.40;;
64641;SDS011;59936;51.490;5.436;2022-09-09T01:02:20;10.95;;;3.20;;
64641;SDS011;59936;51.490;5.436;2022-09-09T01:04:34;2.75;;;2.08;;
64641;SDS011;59936;51.490;5.436;2022-09-09T01:06:43;6.28;;;2.97;;
64641;SDS011;59936;51.490;5.436;2022-09-09T01:07:55;4.80;;;2.85;;
64641;SDS011;59936;51.490;5.436;2022-09-09T01:10:27;6.07;;;2.50;;
64641;SDS011;59936;51.490;5.436;2022-09-09T01:11:47;5.07;;;2.58;;
64641;SDS011;59936;51.490;5.436;2022-09-09T01:13:31;5.80;;;2.67;;
64641;SDS011;59936;51.490;5.436;2022-09-09T01:15:36;8.52;;;3.05;;
64641;SDS011;59936;51.490;5.436;2022-09-09T01:16:39;6.60;;;2.90;;
64641;SDS011;59936;51.490;5.436;2022-09-09T01:18:46;5.47;;;2.65;;
64641;SDS011;59936;51.490;5.436;2022-09-09T01:19:55;4.97;;;2.88;;
64641;SDS011;59936;51.490;5.436;2022-09-09T01:21:08;4.45;;;2.83;;
64641;SDS011;59936;51.490;5.436;2022-09-09T01:26:44;5.90;;;3.33;;
64641;SDS011;59936;51.490;5.436;2022-09-09T01:27:43;3.47;;;2.83;;
64641;SDS011;59936;51.490;5.436;2022-09-09T01:28:48;5.65;;;3.10;;
64641;SDS011;59936;51.490;5.436;2022-09-09T01:29:49;10.07;;;3.22;;
64641;SDS011;59936;51.490;5.436;2022-09-09T01:30:47;7.88;;;3.25;;
64641;SDS011;59936;51.490;5.436;2022-09-09T01:31:52;6.93;;;3.70;;
64641;SDS011;59936;51.490;5.436;2022-09-09T01:32:54;5.53;;;3.53;;
64641;SDS011;59936;51.490;5.436;2022-09-09T01:33:55;5.57;;;3.15;;
64641;SDS011;59936;51.490;5.436;2022-09-09T01:34:53;5.20;;;3.05;;
64641;SDS011;59936;51.490;5.436;2022-09-09T01:35:52;5.63;;;3.40;;
64641;SDS011;59936;51.490;5.436;2022-09-09T01:38:05;8.02;;;3.20;;
64641;SDS011;59936;51.490;5.436;2022-09-09T01:39:03;5.90;;;3.38;;
64641;SDS011;59936;51.490;5.436;2022-09-09T01:40:01;8.73;;;3.67;;
64641;SDS011;59936;51.490;5.436;2022-09-09T01:40:58;8.00;;;3.78;;
64641;SDS011;59936;51.490;5.436;2022-09-09T01:41:56;6.57;;;3.90;;
64641;SDS011;59936;51.490;5.436;2022-09-09T01:42:54;5.90;;;3.47;;
64641;SDS011;59936;51.490;5.436;2022-09-09T01:43:53;8.10;;;3.60;;
64641;SDS011;59936;51.490;5.436;2022-09-09T01:44:52;8.50;;;4.20;;
64641;SDS011;59936;51.490;5.436;2022-09-09T01:45:52;9.30;;;4.15;;
64641;SDS011;59936;51.490;5.436;2022-09-09T01:46:55;7.07;;;3.60;;
64641;SDS011;59936;51.490;5.436;2022-09-09T01:47:53;8.20;;;3.63;;
64641;SDS011;59936;51.490;5.436;2022-09-09T01:48:51;7.03;;;3.90;;
64641;SDS011;59936;51.490;5.436;2022-09-09T01:49:51;7.22;;;3.40;;
64641;SDS011;59936;51.490;5.436;2022-09-09T01:50:49;7.63;;;4.07;;
64641;SDS011;59936;51.490;5.436;2022-09-09T01:51:48;10.52;;;4.05;;
64641;SDS011;59936;51.490;5.436;2022-09-09T01:52:50;6.85;;;4.00;;
64641;SDS011;59936;51.490;5.436;2022-09-09T01:53:53;7.32;;;3.80;;
64641;SDS011;59936;51.490;5.436;2022-09-09T01:54:51;9.88;;;4.00;;
64641;SDS011;59936;51.490;5.436;2022-09-09T01:56:00;6.53;;;3.70;;
64641;SDS011;59936;51.490;5.436;2022-09-09T01:57:22;9.50;;;4.10;;
64641;SDS011;59936;51.490;5.436;2022-09-09T02:00:15;6.60;;;3.75;;
64641;SDS011;59936;51.490;5.436;2022-09-09T02:02:27;11.18;;;3.90;;
64641;SDS011;59936;51.490;5.436;2022-09-09T02:03:54;7.20;;;3.83;;
64641;SDS011;59936;51.490;5.436;2022-09-09T02:06:39;9.70;;;3.72;;
64641;SDS011;59936;51.490;5.436;2022-09-09T02:07:38;9.48;;;4.22;;
64641;SDS011;59936;51.490;5.436;2022-09-09T02:08:40;5.80;;;3.92;;
64641;SDS011;59936;51.490;5.436;2022-09-09T02:09:47;8.43;;;4.03;;
64641;SDS011;59936;51.490;5.436;2022-09-09T02:11:05;9.68;;;3.40;;
64641;SDS011;59936;51.490;5.436;2022-09-09T02:12:11;8.98;;;4.00;;
64641;SDS011;59936;51.490;5.436;2022-09-09T02:13:16;10.82;;;4.57;;
64641;SDS011;59936;51.490;5.436;2022-09-09T02:14:21;9.48;;;4.18;;
64641;SDS011;59936;51.490;5.436;2022-09-09T02:15:30;7.88;;;4.35;;
64641;SDS011;59936;51.490;5.436;2022-09-09T02:16:42;8.38;;;4.00;;
64641;SDS011;59936;51.490;5.436;2022-09-09T02:17:48;6.57;;;3.70;;
64641;SDS011;59936;51.490;5.436;2022-09-09T02:19:02;5.97;;;4.10;;
64641;SDS011;59936;51.490;5.436;2022-09-09T02:20:14;7.97;;;4.60;;
64641;SDS011;59936;51.490;5.436;2022-09-09T02:21:12;6.93;;;4.55;;
64641;SDS011;59936;51.490;5.436;2022-09-09T02:22:12;7.78;;;4.13;;
64641;SDS011;59936;51.490;5.436;2022-09-09T02:24:12;12.65;;;4.70;;
64641;SDS011;59936;51.490;5.436;2022-09-09T02:25:13;9.43;;;3.80;;
64641;SDS011;59936;51.490;5.436;2022-09-09T02:26:15;9.30;;;4.25;;
64641;SDS011;59936;51.490;5.436;2022-09-09T02:27:18;8.88;;;4.22;;
64641;SDS011;59936;51.490;5.436;2022-09-09T02:28:19;11.40;;;4.28;;
64641;SDS011;59936;51.490;5.436;2022-09-09T02:29:23;9.00;;;4.22;;
64641;SDS011;59936;51.490;5.436;2022-09-09T02:30:28;6.97;;;4.00;;
64641;SDS011;59936;51.490;5.436;2022-09-09T02:31:31;7.03;;;4.38;;
64641;SDS011;59936;51.490;5.436;2022-09-09T02:32:32;9.07;;;4.45;;
64641;SDS011;59936;51.490;5.436;2022-09-09T02:33:35;10.77;;;4.85;;
64641;SDS011;59936;51.490;5.436;2022-09-09T02:34:42;8.43;;;4.38;;
64641;SDS011;59936;51.490;5.436;2022-09-09T02:35:48;7.68;;;4.38;;
64641;SDS011;59936;51.490;5.436;2022-09-09T02:36:48;5.93;;;4.38;;
64641;SDS011;59936;51.490;5.436;2022-09-09T02:37:51;9.45;;;4.30;;
64641;SDS011;59936;51.490;5.436;2022-09-09T02:38:53;10.05;;;4.63;;
64641;SDS011;59936;51.490;5.436;2022-09-09T02:39:52;14.40;;;4.72;;
64641;SDS011;59936;51.490;5.436;2022-09-09T02:40:50;5.22;;;3.95;;
64641;SDS011;59936;51.490;5.436;2022-09-09T02:41:47;7.57;;;4.63;;
64641;SDS011;59936;51.490;5.436;2022-09-09T02:42:45;10.55;;;4.63;;
64641;SDS011;59936;51.490;5.436;2022-09-09T02:44:42;7.95;;;4.40;;
64641;SDS011;59936;51.490;5.436;2022-09-09T02:45:42;10.57;;;4.85;;
64641;SDS011;59936;51.490;5.436;2022-09-09T02:49:42;8.80;;;3.83;;
64641;SDS011;59936;51.490;5.436;2022-09-09T02:52:32;11.50;;;4.80;;
64641;SDS011;59936;51.490;5.436;2022-09-09T02:54:25;9.63;;;4.15;;
64641;SDS011;59936;51.490;5.436;2022-09-09T02:56:41;8.73;;;3.90;;
64641;SDS011;59936;51.490;5.436;2022-09-09T02:57:48;10.13;;;4.40;;
64641;SDS011;59936;51.490;5.436;2022-09-09T02:58:48;11.07;;;4.65;;
64641;SDS011;59936;51.490;5.436;2022-09-09T02:59:49;7.30;;;4.50;;
64641;SDS011;59936;51.490;5.436;2022-09-09T03:00:49;13.45;;;4.53;;
64641;SDS011;59936;51.490;5.436;2022-09-09T03:01:48;14.83;;;4.13;;
64641;SDS011;59936;51.490;5.436;2022-09-09T03:02:45;10.02;;;4.10;;
64641;SDS011;59936;51.490;5.436;2022-09-09T03:03:43;11.50;;;4.18;;
64641;SDS011;59936;51.490;5.436;2022-09-09T03:04:41;10.18;;;4.50;;
64641;SDS011;59936;51.490;5.436;2022-09-09T03:05:41;7.93;;;4.07;;
64641;SDS011;59936;51.490;5.436;2022-09-09T03:06:40;7.78;;;4.28;;
64641;SDS011;59936;51.490;5.436;2022-09-09T03:07:37;9.80;;;4.40;;
64641;SDS011;59936;51.490;5.436;2022-09-09T03:08:36;8.70;;;3.97;;
64641;SDS011;59936;51.490;5.436;2022-09-09T03:09:34;13.75;;;4.40;;
64641;SDS011;59936;51.490;5.436;2022-09-09T03:10:32;7.97;;;3.85;;
64641;SDS011;59936;51.490;5.436;2022-09-09T03:11:30;8.18;;;4.05;;
64641;SDS011;59936;51.490;5.436;2022-09-09T03:12:27;8.18;;;3.90;;
64641;SDS011;59936;51.490;5.436;2022-09-09T03:13:24;10.13;;;3.92;;
64641;SDS011;59936;51.490;5.436;2022-09-09T03:14:22;8.73;;;4.13;;
64641;SDS011;59936;51.490;5.436;2022-09-09T03:15:22;10.10;;;3.90;;
64641;SDS011;59936;51.490;5.436;2022-09-09T03:16:19;10.90;;;3.83;;
64641;SDS011;59936;51.490;5.436;2022-09-09T03:17:18;9.93;;;3.70;;
64641;SDS011;59936;51.490;5.436;2022-09-09T03:18:15;5.82;;;3.70;;
64641;SDS011;59936;51.490;5.436;2022-09-09T03:19:13;8.82;;;3.72;;
64641;SDS011;59936;51.490;5.436;2022-09-09T03:20:10;6.60;;;3.72;;
64641;SDS011;59936;51.490;5.436;2022-09-09T03:21:07;9.40;;;3.70;;
64641;SDS011;59936;51.490;5.436;2022-09-09T03:22:05;7.45;;;3.45;;
64641;SDS011;59936;51.490;5.436;2022-09-09T03:23:02;11.65;;;4.03;;
64641;SDS011;59936;51.490;5.436;2022-09-09T03:24:00;9.82;;;3.78;;
64641;SDS011;59936;51.490;5.436;2022-09-09T03:25:00;7.40;;;3.25;;
64641;SDS011;59936;51.490;5.436;2022-09-09T03:25:59;8.05;;;3.60;;
64641;SDS011;59936;51.490;5.436;2022-09-09T03:26:57;7.05;;;3.90;;
64641;SDS011;59936;51.490;5.436;2022-09-09T03:27:54;9.00;;;3.83;;
64641;SDS011;59936;51.490;5.436;2022-09-09T03:28:52;7.18;;;3.42;;
64641;SDS011;59936;51.490;5.436;2022-09-09T03:29:50;8.88;;;3.28;;
64641;SDS011;59936;51.490;5.436;2022-09-09T03:30:48;7.57;;;3.70;;
64641;SDS011;59936;51.490;5.436;2022-09-09T03:31:46;8.00;;;3.60;;
64641;SDS011;59936;51.490;5.436;2022-09-09T03:32:43;9.18;;;3.75;;
64641;SDS011;59936;51.490;5.436;2022-09-09T03:33:41;5.78;;;3.42;;
64641;SDS011;59936;51.490;5.436;2022-09-09T03:34:39;11.20;;;3.47;;
64641;SDS011;59936;51.490;5.436;2022-09-09T03:35:37;9.52;;;3.58;;
64641;SDS011;59936;51.490;5.436;2022-09-09T03:36:34;7.90;;;3.55;;
64641;SDS011;59936;51.490;5.436;2022-09-09T03:37:32;10.18;;;3.72;;
64641;SDS011;59936;51.490;5.436;2022-09-09T03:38:29;8.77;;;3.55;;
64641;SDS011;59936;51.490;5.436;2022-09-09T03:39:26;8.10;;;3.33;;
64641;SDS011;59936;51.490;5.436;2022-09-09T03:40:24;6.65;;;3.47;;
64641;SDS011;59936;51.490;5.436;2022-09-09T03:41:21;10.65;;;3.70;;
64641;SDS011;59936;51.490;5.436;2022-09-09T03:42:20;12.70;;;4.10;;
64641;SDS011;59936;51.490;5.436;2022-09-09T03:43:18;8.98;;;3.97;;
64641;SDS011;59936;51.490;5.436;2022-09-09T03:44:16;8.77;;;3.33;;
64641;SDS011;59936;51.490;5.436;2022-09-09T03:45:14;8.82;;;3.67;;
64641;SDS011;59936;51.490;5.436;2022-09-09T03:46:11;6.78;;;3.33;;
64641;SDS011;59936;51.490;5.436;2022-09-09T03:47:09;8.10;;;3.60;;
64641;SDS011;59936;51.490;5.436;2022-09-09T03:48:06;9.68;;;3.90;;
64641;SDS011;59936;51.490;5.436;2022-09-09T03:49:03;9.10;;;3.38;;
64641;SDS011;59936;51.490;5.436;2022-09-09T03:50:01;11.50;;;3.80;;
64641;SDS011;59936;51.490;5.436;2022-09-09T03:50:58;11.13;;;3.88;;
64641;SDS011;59936;51.490;5.436;2022-09-09T03:51:58;9.23;;;4.03;;
64641;SDS011;59936;51.490;5.436;2022-09-09T03:52:55;6.15;;;3.38;;
64641;SDS011;59936;51.490;5.436;2022-09-09T03:53:53;6.63;;;3.63;;
64641;SDS011;59936;51.490;5.436;2022-09-09T03:54:52;11.02;;;3.90;;
64641;SDS011;59936;51.490;5.436;2022-09-09T03:55:51;7.53;;;3.60;;
64641;SDS011;59936;51.490;5.436;2022-09-09T03:56:56;8.32;;;3.90;;
64641;SDS011;59936;51.490;5.436;2022-09-09T03:57:54;8.32;;;3.95;;
64641;SDS011;59936;51.490;5.436;2022-09-09T03:58:52;7.90;;;3.75;;
64641;SDS011;59936;51.490;5.436;2022-09-09T03:59:49;10.07;;;3.60;;
64641;SDS011;59936;51.490;5.436;2022-09-09T04:00:54;8.40;;;3.60;;
64641;SDS011;59936;51.490;5.436;2022-09-09T04:01:52;8.32;;;3.92;;
64641;SDS011;59936;51.490;5.436;2022-09-09T04:02:50;5.45;;;3.45;;
64641;SDS011;59936;51.490;5.436;2022-09-09T04:03:50;11.90;;;4.15;;
64641;SDS011;59936;51.490;5.436;2022-09-09T04:04:49;7.35;;;3.72;;
64641;SDS011;59936;51.490;5.436;2022-09-09T04:05:48;10.25;;;3.83;;
64641;SDS011;59936;51.490;5.436;2022-09-09T04:06:46;7.78;;;3.97;;
64641;SDS011;59936;51.490;5.436;2022-09-09T04:07:45;10.43;;;4.22;;
64641;SDS011;59936;51.490;5.436;2022-09-09T04:08:42;8.52;;;3.85;;
64641;SDS011;59936;51.490;5.436;2022-09-09T04:09:40;11.10;;;4.05;;
64641;SDS011;59936;51.490;5.436;2022-09-09T04:10:37;10.90;;;4.43;;
64641;SDS011;59936;51.490;5.436;2022-09-09T04:11:35;11.40;;;4.65;;
64641;SDS011;59936;51.490;5.436;2022-09-09T04:12:33;11.38;;;4.05;;
64641;SDS011;59936;51.490;5.436;2022-09-09T04:13:32;9.45;;;4.15;;
64641;SDS011;59936;51.490;5.436;2022-09-09T04:14:31;10.38;;;4.30;;
64641;SDS011;59936;51.490;5.436;2022-09-09T04:15:28;8.35;;;3.95;;
64641;SDS011;59936;51.490;5.436;2022-09-09T04:16:27;10.55;;;4.03;;
64641;SDS011;59936;51.490;5.436;2022-09-09T04:17:24;10.90;;;4.05;;
64641;SDS011;59936;51.490;5.436;2022-09-09T04:18:22;8.50;;;3.90;;
64641;SDS011;59936;51.490;5.436;2022-09-09T04:19:20;11.05;;;4.03;;
64641;SDS011;59936;51.490;5.436;2022-09-09T04:20:18;12.23;;;4.15;;
64641;SDS011;59936;51.490;5.436;2022-09-09T04:21:16;9.02;;;4.00;;
64641;SDS011;59936;51.490;5.436;2022-09-09T04:22:14;12.45;;;4.00;;
64641;SDS011;59936;51.490;5.436;2022-09-09T04:23:11;9.13;;;3.92;;
64641;SDS011;59936;51.490;5.436;2022-09-09T04:24:09;12.98;;;4.07;;
64641;SDS011;59936;51.490;5.436;2022-09-09T04:25:06;11.30;;;3.65;;
64641;SDS011;59936;51.490;5.436;2022-09-09T04:26:04;8.85;;;4.10;;
64641;SDS011;59936;51.490;5.436;2022-09-09T04:27:03;12.60;;;4.32;;
64641;SDS011;59936;51.490;5.436;2022-09-09T04:28:00;9.25;;;3.80;;
64641;SDS011;59936;51.490;5.436;2022-09-09T04:28:59;14.02;;;3.83;;
64641;SDS011;59936;51.490;5.436;2022-09-09T04:29:57;10.43;;;3.95;;
64641;SDS011;59936;51.490;5.436;2022-09-09T04:30:54;10.88;;;4.07;;
64641;SDS011;59936;51.490;5.436;2022-09-09T04:31:53;12.02;;;4.30;;
64641;SDS011;59936;51.490;5.436;2022-09-09T04:32:51;11.90;;;4.10;;
64641;SDS011;59936;51.490;5.436;2022-09-09T04:33:48;11.25;;;3.97;;
64641;SDS011;59936;51.490;5.436;2022-09-09T04:34:47;11.45;;;4.43;;
64641;SDS011;59936;51.490;5.436;2022-09-09T04:35:45;9.50;;;4.22;;
64641;SDS011;59936;51.490;5.436;2022-09-09T04:37:42;11.93;;;4.00;;
64641;SDS011;59936;51.490;5.436;2022-09-09T04:38:40;10.05;;;3.50;;
64641;SDS011;59936;51.490;5.436;2022-09-09T04:39:37;8.18;;;3.70;;
64641;SDS011;59936;51.490;5.436;2022-09-09T04:40:35;8.27;;;3.47;;
64641;SDS011;59936;51.490;5.436;2022-09-09T04:41:33;15.25;;;3.80;;
64641;SDS011;59936;51.490;5.436;2022-09-09T04:42:34;12.80;;;3.83;;
64641;SDS011;59936;51.490;5.436;2022-09-09T04:43:33;13.23;;;3.90;;
64641;SDS011;59936;51.490;5.436;2022-09-09T04:44:31;12.32;;;4.13;;
64641;SDS011;59936;51.490;5.436;2022-09-09T04:45:28;9.68;;;3.83;;
64641;SDS011;59936;51.490;5.436;2022-09-09T04:46:26;12.50;;;3.92;;
64641;SDS011;59936;51.490;5.436;2022-09-09T04:47:24;11.35;;;4.00;;
64641;SDS011;59936;51.490;5.436;2022-09-09T04:48:21;10.93;;;3.85;;
64641;SDS011;59936;51.490;5.436;2022-09-09T04:49:18;12.82;;;3.95;;
64641;SDS011;59936;51.490;5.436;2022-09-09T04:50:16;13.23;;;4.15;;
64641;SDS011;59936;51.490;5.436;2022-09-09T04:51:13;10.35;;;4.03;;
64641;SDS011;59936;51.490;5.436;2022-09-09T04:52:11;9.63;;;3.78;;
64641;SDS011;59936;51.490;5.436;2022-09-09T04:53:09;16.08;;;4.40;;
64641;SDS011;59936;51.490;5.436;2022-09-09T04:54:06;9.55;;;4.05;;
64641;SDS011;59936;51.490;5.436;2022-09-09T04:55:04;8.95;;;3.80;;
64641;SDS011;59936;51.490;5.436;2022-09-09T04:56:06;10.13;;;3.92;;
64641;SDS011;59936;51.490;5.436;2022-09-09T04:57:10;13.88;;;4.45;;
64641;SDS011;59936;51.490;5.436;2022-09-09T04:58:08;10.85;;;3.83;;
64641;SDS011;59936;51.490;5.436;2022-09-09T04:59:05;10.68;;;3.83;;
64641;SDS011;59936;51.490;5.436;2022-09-09T05:00:03;12.70;;;4.32;;
64641;SDS011;59936;51.490;5.436;2022-09-09T05:01:05;8.65;;;3.92;;
64641;SDS011;59936;51.490;5.436;2022-09-09T05:02:05;12.20;;;3.92;;
64641;SDS011;59936;51.490;5.436;2022-09-09T05:03:03;10.55;;;4.28;;
64641;SDS011;59936;51.490;5.436;2022-09-09T05:04:02;12.95;;;3.95;;
64641;SDS011;59936;51.490;5.436;2022-09-09T05:05:00;8.82;;;4.20;;
64641;SDS011;59936;51.490;5.436;2022-09-09T05:06:07;10.48;;;3.88;;
64641;SDS011;59936;51.490;5.436;2022-09-09T05:07:07;11.27;;;4.22;;
64641;SDS011;59936;51.490;5.436;2022-09-09T05:08:05;18.73;;;4.80;;
64641;SDS011;59936;51.490;5.436;2022-09-09T05:09:05;11.82;;;3.92;;
64641;SDS011;59936;51.490;5.436;2022-09-09T05:10:02;13.30;;;4.15;;
64641;SDS011;59936;51.490;5.436;2022-09-09T05:11:02;9.35;;;3.67;;
64641;SDS011;59936;51.490;5.436;2022-09-09T05:11:59;6.82;;;4.00;;
64641;SDS011;59936;51.490;5.436;2022-09-09T05:12:57;10.77;;;4.32;;
64641;SDS011;59936;51.490;5.436;2022-09-09T05:13:54;9.95;;;3.65;;
64641;SDS011;59936;51.490;5.436;2022-09-09T05:14:53;8.07;;;3.70;;
64641;SDS011;59936;51.490;5.436;2022-09-09T05:15:54;10.95;;;3.80;;
64641;SDS011;59936;51.490;5.436;2022-09-09T05:16:52;10.07;;;3.90;;
64641;SDS011;59936;51.490;5.436;2022-09-09T05:17:49;15.45;;;4.30;;
64641;SDS011;59936;51.490;5.436;2022-09-09T05:18:46;14.80;;;4.13;;
64641;SDS011;59936;51.490;5.436;2022-09-09T05:19:44;9.95;;;4.07;;
64641;SDS011;59936;51.490;5.436;2022-09-09T05:20:41;11.00;;;3.78;;
64641;SDS011;59936;51.490;5.436;2022-09-09T05:21:39;8.13;;;3.70;;
64641;SDS011;59936;51.490;5.436;2022-09-09T05:22:38;10.13;;;4.43;;
64641;SDS011;59936;51.490;5.436;2022-09-09T05:23:35;10.80;;;3.90;;
64641;SDS011;59936;51.490;5.436;2022-09-09T05:24:34;11.38;;;3.90;;
64641;SDS011;59936;51.490;5.436;2022-09-09T05:25:31;13.95;;;3.78;;
64641;SDS011;59936;51.490;5.436;2022-09-09T05:26:29;10.35;;;4.35;;
64641;SDS011;59936;51.490;5.436;2022-09-09T05:27:27;10.18;;;3.67;;
64641;SDS011;59936;51.490;5.436;2022-09-09T05:28:25;10.57;;;3.90;;
64641;SDS011;59936;51.490;5.436;2022-09-09T05:29:24;8.98;;;3.85;;
64641;SDS011;59936;51.490;5.436;2022-09-09T05:30:21;9.13;;;3.60;;
64641;SDS011;59936;51.490;5.436;2022-09-09T05:31:20;13.52;;;3.95;;
64641;SDS011;59936;51.490;5.436;2022-09-09T05:32:18;11.73;;;3.42;;
64641;SDS011;59936;51.490;5.436;2022-09-09T05:33:15;14.80;;;3.92;;
64641;SDS011;59936;51.490;5.436;2022-09-09T05:34:12;11.30;;;4.20;;
64641;SDS011;59936;51.490;5.436;2022-09-09T05:35:10;15.07;;;4.05;;
64641;SDS011;59936;51.490;5.436;2022-09-09T05:36:08;7.05;;;3.10;;
64641;SDS011;59936;51.490;5.436;2022-09-09T05:37:11;11.27;;;3.78;;
64641;SDS011;59936;51.490;5.436;2022-09-09T05:38:09;9.48;;;3.80;;
64641;SDS011;59936;51.490;5.436;2022-09-09T05:39:06;7.20;;;3.38;;
64641;SDS011;59936;51.490;5.436;2022-09-09T05:40:04;10.18;;;3.63;;
64641;SDS011;59936;51.490;5.436;2022-09-09T05:41:02;9.07;;;3.47;;
64641;SDS011;59936;51.490;5.436;2022-09-09T05:42:00;6.40;;;3.28;;
64641;SDS011;59936;51.490;5.436;2022-09-09T05:43:00;12.27;;;4.07;;
64641;SDS011;59936;51.490;5.436;2022-09-09T05:43:57;8.93;;;3.78;;
64641;SDS011;59936;51.490;5.436;2022-09-09T05:44:58;8.57;;;3.58;;
64641;SDS011;59936;51.490;5.436;2022-09-09T05:45:59;9.85;;;3.42;;
64641;SDS011;59936;51.490;5.436;2022-09-09T05:47:01;10.45;;;3.50;;
64641;SDS011;59936;51.490;5.436;2022-09-09T05:47:59;11.63;;;3.13;;
64641;SDS011;59936;51.490;5.436;2022-09-09T05:48:57;10.85;;;3.53;;
64641;SDS011;59936;51.490;5.436;2022-09-09T05:49:55;12.60;;;3.30;;
64641;SDS011;59936;51.490;5.436;2022-09-09T05:50:52;11.63;;;3.45;;
64641;SDS011;59936;51.490;5.436;2022-09-09T05:51:51;9.52;;;3.75;;
64641;SDS011;59936;51.490;5.436;2022-09-09T05:52:48;9.75;;;3.63;;
64641;SDS011;59936;51.490;5.436;2022-09-09T05:53:47;10.82;;;3.47;;
64641;SDS011;59936;51.490;5.436;2022-09-09T05:54:45;12.13;;;3.72;;
64641;SDS011;59936;51.490;5.436;2022-09-09T05:55:43;10.13;;;3.47;;
64641;SDS011;59936;51.490;5.436;2022-09-09T05:56:42;8.75;;;3.58;;
64641;SDS011;59936;51.490;5.436;2022-09-09T05:57:39;10.45;;;3.63;;
64641;SDS011;59936;51.490;5.436;2022-09-09T05:58:37;12.57;;;3.97;;
64641;SDS011;59936;51.490;5.436;2022-09-09T05:59:35;11.85;;;3.17;;
64641;SDS011;59936;51.490;5.436;2022-09-09T06:00:33;9.45;;;3.35;;
64641;SDS011;59936;51.490;5.436;2022-09-09T06:01:31;7.53;;;3.38;;
64641;SDS011;59936;51.490;5.436;2022-09-09T06:02:31;8.27;;;3.35;;
64641;SDS011;59936;51.490;5.436;2022-09-09T06:03:29;9.23;;;3.25;;
64641;SDS011;59936;51.490;5.436;2022-09-09T06:04:27;14.40;;;3.70;;
64641;SDS011;59936;51.490;5.436;2022-09-09T06:05:24;14.20;;;3.50;;
64641;SDS011;59936;51.490;5.436;2022-09-09T06:06:25;8.55;;;3.38;;
64641;SDS011;59936;51.490;5.436;2022-09-09T06:07:28;10.77;;;3.28;;
64641;SDS011;59936;51.490;5.436;2022-09-09T06:08:25;10.68;;;3.28;;
64641;SDS011;59936;51.490;5.436;2022-09-09T06:09:23;11.90;;;3.00;;
64641;SDS011;59936;51.490;5.436;2022-09-09T06:10:21;6.30;;;2.90;;
64641;SDS011;59936;51.490;5.436;2022-09-09T06:11:20;9.02;;;3.05;;
64641;SDS011;59936;51.490;5.436;2022-09-09T06:12:21;8.35;;;3.08;;
64641;SDS011;59936;51.490;5.436;2022-09-09T06:13:18;9.23;;;2.97;;
64641;SDS011;59936;51.490;5.436;2022-09-09T06:14:16;7.85;;;2.90;;
64641;SDS011;59936;51.490;5.436;2022-09-09T06:15:14;12.52;;;3.65;;
64641;SDS011;59936;51.490;5.436;2022-09-09T06:16:13;8.02;;;3.22;;
64641;SDS011;59936;51.490;5.436;2022-09-09T06:17:13;10.35;;;3.30;;
64641;SDS011;59936;51.490;5.436;2022-09-09T06:18:11;10.85;;;3.08;;
64641;SDS011;59936;51.490;5.436;2022-09-09T06:19:08;12.98;;;3.20;;
64641;SDS011;59936;51.490;5.436;2022-09-09T06:20:05;8.75;;;2.90;;
64641;SDS011;59936;51.490;5.436;2022-09-09T06:21:07;11.50;;;3.00;;
64641;SDS011;59936;51.490;5.436;2022-09-09T06:22:12;12.15;;;3.10;;
64641;SDS011;59936;51.490;5.436;2022-09-09T06:23:09;8.35;;;2.90;;
64641;SDS011;59936;51.490;5.436;2022-09-09T06:24:07;7.65;;;2.90;;
64641;SDS011;59936;51.490;5.436;2022-09-09T06:25:05;10.07;;;3.10;;
64641;SDS011;59936;51.490;5.436;2022-09-09T06:26:05;5.93;;;2.95;;
64641;SDS011;59936;51.490;5.436;2022-09-09T06:27:07;13.38;;;3.28;;
64641;SDS011;59936;51.490;5.436;2022-09-09T06:28:04;8.63;;;2.72;;
64641;SDS011;59936;51.490;5.436;2022-09-09T06:29:02;8.68;;;2.38;;
64641;SDS011;59936;51.490;5.436;2022-09-09T06:30:01;10.48;;;3.63;;
64641;SDS011;59936;51.490;5.436;2022-09-09T06:31:00;6.85;;;2.95;;
64641;SDS011;59936;51.490;5.436;2022-09-09T06:32:01;9.63;;;2.90;;
64641;SDS011;59936;51.490;5.436;2022-09-09T06:33:00;8.63;;;3.03;;
64641;SDS011;59936;51.490;5.436;2022-09-09T06:33:58;14.23;;;3.55;;
64641;SDS011;59936;51.490;5.436;2022-09-09T06:34:55;17.95;;;3.13;;
64641;SDS011;59936;51.490;5.436;2022-09-09T06:35:53;11.90;;;3.30;;
64641;SDS011;59936;51.490;5.436;2022-09-09T06:36:51;13.98;;;3.40;;
64641;SDS011;59936;51.490;5.436;2022-09-09T06:37:49;7.47;;;2.97;;
64641;SDS011;59936;51.490;5.436;2022-09-09T06:38:46;11.38;;;3.30;;
64641;SDS011;59936;51.490;5.436;2022-09-09T06:39:44;8.23;;;2.65;;
64641;SDS011;59936;51.490;5.436;2022-09-09T06:40:41;9.38;;;2.97;;
64641;SDS011;59936;51.490;5.436;2022-09-09T06:41:39;11.95;;;2.80;;
64641;SDS011;59936;51.490;5.436;2022-09-09T06:42:37;11.50;;;3.15;;
64641;SDS011;59936;51.490;5.436;2022-09-09T06:43:35;4.88;;;2.30;;
64641;SDS011;59936;51.490;5.436;2022-09-09T06:44:33;7.32;;;2.70;;
64641;SDS011;59936;51.490;5.436;2022-09-09T06:45:31;9.98;;;3.13;;
64641;SDS011;59936;51.490;5.436;2022-09-09T06:46:29;11.25;;;3.40;;
64641;SDS011;59936;51.490;5.436;2022-09-09T06:47:29;10.07;;;3.20;;
64641;SDS011;59936;51.490;5.436;2022-09-09T06:48:27;10.68;;;3.00;;
64641;SDS011;59936;51.490;5.436;2022-09-09T06:49:25;8.50;;;3.20;;
64641;SDS011;59936;51.490;5.436;2022-09-09T06:50:22;11.25;;;3.33;;
64641;SDS011;59936;51.490;5.436;2022-09-09T06:51:20;9.30;;;3.03;;
64641;SDS011;59936;51.490;5.436;2022-09-09T06:52:19;9.55;;;2.65;;
64641;SDS011;59936;51.490;5.436;2022-09-09T06:53:17;10.82;;;3.63;;
64641;SDS011;59936;51.490;5.436;2022-09-09T06:54:16;8.85;;;2.70;;